This is the latest recevied weather packets stored in our database for station/object IW2HNF-3. If no packets are shown the sender has not sent any weather packets the latest 10 day(s).
| Time | Temp. | Humidity | Pressure | Rain* | Wind** | Luminosity | Snow |
|---|---|---|---|---|---|---|---|
| 1788660646 | 25° C | 55% | 1019.3 hPa | 0 mm | - | - | - |
| 1788659447 | 25° C | 55% | 1019.2 hPa | 0 mm | - | - | - |
| 1788654647 | 25° C | 51% | 1018.9 hPa | 0 mm | - | - | - |
| 1788654071 | 25° C | 51% | 1018.9 hPa | 0 mm | - | - | - |
| 1788653452 | 24.44° C | 49% | 1019 hPa | 0 mm | - | - | - |
| 1788653254 | 24.44° C | 49% | 1018.9 hPa | 0 mm | - | - | - |
| 1788646247 | 25.56° C | 52% | 1018 hPa | 0 mm | - | - | - |
| 1788642071 | 25.56° C | 56% | 1017.8 hPa | 0 mm | - | - | - |
| 1788639671 | 26.11° C | 57% | 1017.6 hPa | 0 mm | - | - | - |
| 1788639046 | 26.11° C | 58% | 1017.4 hPa | 0 mm | - | - | - |
| 1788638471 | 26.11° C | 59% | 1017.4 hPa | 0 mm | - | - | - |
| 1788637846 | 26.67° C | 57% | 1017.3 hPa | 0 mm | - | - | - |
| 1788637270 | 27.22° C | 56% | 1017.1 hPa | 0 mm | - | - | - |
| 1788636646 | 27.22° C | 55% | 1017.1 hPa | 0 mm | - | - | - |
| 1788636070 | 27.22° C | 56% | 1016.9 hPa | 0 mm | - | - | - |
| 1788635447 | 27.22° C | 58% | 1016.8 hPa | 0 mm | - | - | - |
| 1788633671 | 27.78° C | 60% | 1016.3 hPa | 0 mm | - | - | - |
| 1788633047 | 27.78° C | 59% | 1016.1 hPa | 0 mm | - | - | - |
| 1788632470 | 27.78° C | 60% | 1016 hPa | 0 mm | - | - | - |
| 1788631846 | 28.33° C | 59% | 1016 hPa | 0 mm | - | - | - |
| 1788631510 | 28.33° C | 58% | 1015.9 hPa | 0 mm | - | - | - |
| 1788630646 | 28.89° C | 57% | 1015.8 hPa | 0 mm | - | - | - |
| 1788630071 | 29.44° C | 56% | 1015.7 hPa | 0 mm | - | - | - |
| 1788629447 | 30° C | 54% | 1015.7 hPa | 0 mm | - | - | - |
| 1788628870 | 30° C | 53% | 1015.6 hPa | 0 mm | - | - | - |
* Rain latest hour (hover to see other rain measurements)
** Current wind speed in m/s (hover to see current wind gust speed)